Time;durP1;ratioP1;P1;durP2;ratioP2;P2;SDS_P1;SDS_P2;PMS_P1;PMS_P2;Temp;Humidity;BMP_temperature;BMP_pressure;BME280_temperature;BME280_humidity;BME280_pressure;Samples;Min_cycle;Max_cycle;Signal;HPM_P1;HPM_P2
2021/08/06 00:01:18;;;;;;;;;2.00;1.00;;;;;20.07;64.15;99643.88;5015263;28;45620;-78
2021/08/06 00:03:44;;;;;;;;;3.00;2.00;;;;;20.07;64.20;99643.06;5015202;28;46260;-76
2021/08/06 00:06:10;;;;;;;;;2.25;2.00;;;;;20.07;64.15;99656.38;5014747;28;45675;-78
2021/08/06 00:08:35;;;;;;;;;2.00;2.00;;;;;20.03;64.26;99645.28;5014784;28;45641;-79
2021/08/06 00:11:04;;;;;;;;;2.75;1.75;;;;;20.02;64.18;99654.28;5015021;28;45731;-77
2021/08/06 00:16:52;;;;;;;;;1.50;1.25;;;;;19.94;64.35;99657.06;5014371;28;46081;-77
2021/08/06 00:19:18;;;;;;;;;1.25;0.75;;;;;19.94;64.21;99654.41;5014998;28;45690;-79
2021/08/06 00:21:43;;;;;;;;;1.00;1.00;;;;;19.97;64.13;99658.53;5015075;28;45517;-77
2021/08/06 00:24:08;;;;;;;;;2.00;1.75;;;;;19.95;64.33;99655.25;5014225;28;46488;-77
2021/08/06 00:26:34;;;;;;;;;3.00;1.00;;;;;19.89;64.27;99643.53;5014616;28;46222;-77
2021/08/06 00:29:00;;;;;;;;;3.50;2.75;;;;;19.91;64.40;99646.84;5014850;28;45512;-78
2021/08/06 00:31:25;;;;;;;;;1.75;1.75;;;;;19.91;64.45;99646.84;5014548;28;45845;-78
2021/08/06 00:33:50;;;;;;;;;3.00;2.75;;;;;19.84;64.56;99634.50;5014555;28;46272;-77
2021/08/06 00:36:16;;;;;;;;;4.00;3.00;;;;;19.85;64.35;99642.28;5014411;28;45537;-79
2021/08/06 00:38:41;;;;;;;;;2.50;1.00;;;;;19.85;64.66;99660.06;5014576;28;45631;-80
2021/08/06 00:41:07;;;;;;;;;1.75;0.75;;;;;19.81;65.14;99648.19;5014384;28;45849;-76
2021/08/06 00:46:54;;;;;;;;;2.00;1.50;;;;;19.83;65.36;99654.13;5014134;28;45864;-77
2021/08/06 00:49:20;;;;;;;;;1.25;1.00;;;;;19.75;64.64;99643.63;5015017;28;45626;-81
2021/08/06 00:51:45;;;;;;;;;2.00;1.75;;;;;19.64;64.98;99629.03;5015469;28;45995;-83
2021/08/06 00:54:12;;;;;;;;;2.75;2.00;;;;;19.77;64.96;99647.72;5016247;28;46124;-82
2021/08/06 00:56:38;;;;;;;;;2.50;2.50;;;;;19.73;65.04;99640.31;5017091;28;47187;-80
2021/08/06 01:02:52;;;;;;;;;3.75;2.25;;;;;19.67;64.50;99641.91;5018043;28;45532;-83
2021/08/06 01:05:25;;;;;;;;;3.25;1.50;;;;;19.60;64.92;99643.69;5019328;28;45560;-82
2021/08/06 01:08:06;;;;;;;;;2.00;1.00;;;;;19.74;65.01;99660.59;5020142;28;46315;-83
2021/08/06 01:10:49;;;;;;;;;2.75;2.00;;;;;19.72;64.84;99655.44;5017656;28;45620;-83
2021/08/06 01:13:20;;;;;;;;;2.75;2.75;;;;;19.59;64.70;99639.41;5019641;28;45989;-83
2021/08/06 01:15:53;;;;;;;;;2.25;2.00;;;;;19.74;64.63;99663.25;5021365;28;45594;-84
2021/08/06 01:18:20;;;;;;;;;1.75;1.00;;;;;19.72;64.78;99662.59;5020374;28;47407;-81
2021/08/06 01:20:50;;;;;;;;;2.00;2.00;;;;;19.69;64.49;99662.00;5019117;28;45665;-80
2021/08/06 01:23:26;;;;;;;;;1.75;1.75;;;;;19.42;64.58;99603.44;5018936;28;45615;-82
2021/08/06 01:25:54;;;;;;;;;5.00;3.25;;;;;19.69;64.85;99655.84;5022213;28;45445;-84
2021/08/06 01:28:26;;;;;;;;;2.50;1.25;;;;;19.66;64.81;99641.09;5002751;28;48133;-82
2021/08/06 01:30:53;;;;;;;;;2.25;1.50;;;;;19.68;65.07;99655.03;5015387;28;45804;-83
2021/08/06 01:33:20;;;;;;;;;3.00;2.00;;;;;19.67;64.62;99656.03;5014836;28;45700;-82
2021/08/06 01:35:46;;;;;;;;;1.75;1.75;;;;;19.67;64.96;99657.84;5014312;28;45660;-82
2021/08/06 01:38:12;;;;;;;;;2.75;2.00;;;;;19.66;65.15;99667.66;5017332;28;45562;-83
2021/08/06 01:41:17;;;;;;;;;2.00;2.00;;;;;19.59;65.31;99645.53;5017290;28;45591;-81
2021/08/06 01:44:12;;;;;;;;;1.75;1.75;;;;;19.65;65.11;99650.06;4937030;28;45825;-85
2021/08/06 01:46:50;;;;;;;;;3.00;2.75;;;;;19.66;65.07;99648.25;4936809;28;45801;-83
2021/08/06 01:49:35;;;;;;;;;2.25;2.00;;;;;19.65;65.08;99643.94;4936824;28;46293;-83
2021/08/06 01:52:08;;;;;;;;;1.75;1.75;;;;;19.57;64.98;99634.28;4936726;28;45661;-84
2021/08/06 01:54:36;;;;;;;;;2.00;2.00;;;;;19.66;65.03;99650.91;4937055;28;45694;-79
2021/08/06 01:57:06;;;;;;;;;3.75;1.50;;;;;19.65;64.93;99655.38;4936258;28;46652;-82
2021/08/06 01:59:31;;;;;;;;;2.00;1.00;;;;;19.65;65.34;99662.53;4936649;28;45991;-82
2021/08/06 02:01:57;;;;;;;;;2.00;1.25;;;;;19.61;65.07;99646.16;4936473;28;45630;-82
2021/08/06 02:04:24;;;;;;;;;1.75;1.75;;;;;19.53;65.41;99633.03;4936878;28;45803;-82
2021/08/06 02:06:50;;;;;;;;;1.50;1.50;;;;;19.62;65.28;99665.59;4936452;28;45621;-84
2021/08/06 02:09:21;;;;;;;;;4.75;1.75;;;;;19.62;65.60;99661.09;4936299;28;45902;-83
2021/08/06 02:11:49;;;;;;;;;3.00;2.00;;;;;19.57;65.03;99660.03;4936429;28;45709;-84
2021/08/06 02:14:18;;;;;;;;;2.50;1.50;;;;;19.60;64.96;99656.97;4936704;28;45604;-83
2021/08/06 02:16:44;;;;;;;;;2.25;1.75;;;;;19.57;64.97;99652.03;4945942;28;46796;-83
2021/08/06 02:19:14;;;;;;;;;3.00;2.50;;;;;19.57;64.81;99646.72;5016569;28;45634;-82
2021/08/06 02:21:41;;;;;;;;;2.00;2.00;;;;;19.52;64.84;99668.56;5016765;28;45614;-83
2021/08/06 02:24:09;;;;;;;;;2.00;1.75;;;;;19.55;64.88;99668.19;5016603;28;45489;-81
2021/08/06 02:26:38;;;;;;;;;3.50;2.25;;;;;19.50;64.88;99656.47;5016543;28;45769;-83
2021/08/06 02:29:10;;;;;;;;;2.00;1.75;;;;;19.53;65.01;99664.91;5016052;28;47285;-83
2021/08/06 02:31:37;;;;;;;;;3.00;1.50;;;;;19.51;65.24;99674.88;5016198;28;45714;-84
2021/08/06 02:34:03;;;;;;;;;3.25;2.00;;;;;19.47;64.69;99673.63;5016564;28;45483;-84
2021/08/06 02:36:29;;;;;;;;;2.00;1.00;;;;;19.54;64.69;99673.69;4998694;28;46446;-82
2021/08/06 02:38:59;;;;;;;;;1.50;1.50;;;;;19.45;65.15;99666.84;5016038;28;46242;-83
2021/08/06 02:41:26;;;;;;;;;2.50;2.50;;;;;19.49;65.18;99676.06;5016597;28;45651;-79
2021/08/06 02:43:52;;;;;;;;;3.50;1.50;;;;;19.46;64.81;99668.50;5016564;28;45572;-84
2021/08/06 02:46:18;;;;;;;;;3.00;2.50;;;;;19.49;64.99;99673.41;5016398;28;46271;-82
2021/08/06 02:48:44;;;;;;;;;1.50;1.50;;;;;19.44;64.87;99678.44;5015119;28;45949;-84
2021/08/06 02:51:09;;;;;;;;;1.25;1.25;;;;;19.39;64.74;99675.53;5016460;28;45700;-82
2021/08/06 02:53:35;;;;;;;;;3.00;2.25;;;;;19.43;65.10;99682.13;5016511;28;45808;-82
2021/08/06 02:56:00;;;;;;;;;1.50;1.25;;;;;19.37;64.80;99680.22;5016414;28;46582;-79
2021/08/06 02:58:26;;;;;;;;;2.25;1.25;;;;;19.29;64.60;99676.66;5016232;28;45615;-80
2021/08/06 03:00:51;;;;;;;;;1.25;1.25;;;;;19.33;64.66;99679.75;5016455;28;45628;-77
2021/08/06 03:03:17;;;;;;;;;0.25;0.25;;;;;19.31;64.82;99680.97;5017084;28;45587;-78
2021/08/06 03:05:43;;;;;;;;;2.00;2.00;;;;;19.32;64.69;99698.56;5017610;28;46191;-80
2021/08/06 03:08:09;;;;;;;;;2.00;1.50;;;;;19.27;65.07;99694.63;5018471;28;45757;-81
2021/08/06 03:10:34;;;;;;;;;1.75;1.75;;;;;19.23;64.69;99682.72;5017705;28;45675;-80
2021/08/06 03:13:00;;;;;;;;;1.00;1.00;;;;;19.21;64.47;99686.59;5017934;28;45721;-81
2021/08/06 03:15:26;;;;;;;;;1.75;1.75;;;;;19.17;65.03;99699.41;5018737;28;45538;-83
2021/08/06 03:17:51;;;;;;;;;2.50;1.50;;;;;19.15;64.60;99696.13;5023958;28;47077;-83
2021/08/06 03:20:21;;;;;;;;;1.00;1.00;;;;;19.14;64.98;99694.47;5024075;28;45756;-82
2021/08/06 03:22:48;;;;;;;;;0.25;0.25;;;;;19.07;64.63;99688.25;5006470;28;45546;-84
2021/08/06 03:25:13;;;;;;;;;1.00;1.00;;;;;19.09;64.41;99688.91;5024176;28;45602;-84
2021/08/06 03:27:39;;;;;;;;;3.00;2.00;;;;;18.99;64.50;99682.25;5023163;28;45618;-83
2021/08/06 03:33:40;;;;;;;;;2.00;0.75;;;;;19.05;64.87;99692.13;5006955;28;45912;-81
2021/08/06 03:36:07;;;;;;;;;1.50;1.00;;;;;19.01;64.78;99702.28;5015458;28;46250;-84
2021/08/06 03:38:32;;;;;;;;;1.25;0.75;;;;;19.04;64.76;99707.22;5015390;28;45907;-81
2021/08/06 03:40:57;;;;;;;;;1.50;0.50;;;;;18.96;64.45;99702.00;5015334;28;45774;-80
2021/08/06 03:43:23;;;;;;;;;0.00;0.00;;;;;19.01;64.74;99715.56;5015679;28;45662;-83
2021/08/06 03:45:49;;;;;;;;;1.50;1.50;;;;;18.99;64.67;99714.09;5015314;28;46255;-83
2021/08/06 03:48:14;;;;;;;;;2.50;1.00;;;;;18.73;64.66;99664.97;5015417;28;46020;-82
2021/08/06 03:50:42;;;;;;;;;0.25;0.25;;;;;18.91;64.65;99704.41;5015413;28;45869;-82
2021/08/06 03:53:08;;;;;;;;;1.00;1.00;;;;;18.91;64.58;99701.75;5015442;28;45607;-83
2021/08/06 03:55:33;;;;;;;;;2.00;1.50;;;;;18.89;64.26;99710.91;5015033;28;45772;-83
2021/08/06 03:57:59;;;;;;;;;2.00;2.00;;;;;18.92;64.63;99710.53;5015033;28;45721;-79
2021/08/06 04:03:47;;;;;;;;;1.00;1.00;;;;;18.89;64.39;99722.34;5015205;28;45542;-83
2021/08/06 04:06:12;;;;;;;;;1.00;1.00;;;;;18.86;64.41;99720.88;5014600;28;45522;-82
2021/08/06 04:08:38;;;;;;;;;1.25;1.00;;;;;18.88;64.72;99730.50;5014941;28;45608;-83
2021/08/06 04:11:03;;;;;;;;;1.25;0.75;;;;;18.79;64.58;99722.63;5015094;28;45665;-81
2021/08/06 04:13:29;;;;;;;;;1.50;1.50;;;;;18.80;65.03;99732.22;5015315;28;45791;-84
2021/08/06 04:19:16;;;;;;;;;2.25;2.00;;;;;18.81;64.36;99741.03;5014444;28;46016;-82
2021/08/06 04:21:41;;;;;;;;;1.00;1.00;;;;;18.81;64.63;99736.53;4997062;28;45513;-83
2021/08/06 04:24:06;;;;;;;;;1.50;1.25;;;;;18.82;64.89;99740.84;5015076;28;45824;-83
2021/08/06 04:26:32;;;;;;;;;2.00;1.75;;;;;18.75;64.66;99734.59;5014885;28;45500;-82
2021/08/06 04:28:57;;;;;;;;;3.50;2.00;;;;;18.82;64.42;99737.38;5014809;28;46128;-81
2021/08/06 04:31:23;;;;;;;;;1.75;1.00;;;;;18.54;64.25;99702.69;5014723;28;45599;-78
2021/08/06 04:33:48;;;;;;;;;1.00;1.00;;;;;18.81;64.03;99755.13;5014657;28;45552;-75
2021/08/06 04:36:14;;;;;;;;;1.00;1.00;;;;;18.71;64.38;99740.47;5014444;28;45743;-75
2021/08/06 04:38:39;;;;;;;;;2.25;1.50;;;;;18.77;64.55;99756.50;5012722;28;46498;-79
2021/08/06 04:41:05;;;;;;;;;2.50;1.00;;;;;18.78;64.19;99767.94;5014620;28;45624;-79
2021/08/06 04:43:30;;;;;;;;;0.50;0.50;;;;;18.78;64.02;99773.25;5014820;28;45575;-76
2021/08/06 04:49:17;;;;;;;;;2.00;1.00;;;;;18.67;64.08;99763.06;5014228;28;45851;-79
2021/08/06 04:51:42;;;;;;;;;1.00;1.00;;;;;18.72;64.19;99768.66;5014580;28;45584;-84
2021/08/06 04:54:08;;;;;;;;;2.00;0.75;;;;;18.71;64.13;99772.31;5014814;28;45457;-81
2021/08/06 04:56:33;;;;;;;;;3.50;2.00;;;;;18.70;63.91;99771.50;5014075;28;47418;-81
2021/08/06 04:58:59;;;;;;;;;2.50;1.00;;;;;18.53;64.25;99745.25;5014276;28;45693;-78
2021/08/06 05:01:25;;;;;;;;;1.25;1.00;;;;;18.70;64.10;99773.31;5013052;28;45672;-79
2021/08/06 05:03:50;;;;;;;;;1.00;1.00;;;;;18.71;64.23;99778.44;5014733;28;45563;-78
2021/08/06 05:06:16;;;;;;;;;0.00;0.00;;;;;18.63;63.80;99761.78;5014009;28;45607;-77
2021/08/06 05:08:48;;;;;;;;;1.00;1.00;;;;;18.72;63.69;99779.28;5014868;28;46015;-78
2021/08/06 05:11:17;;;;;;;;;1.00;1.00;;;;;18.70;63.83;99784.75;5014628;28;45698;-79
2021/08/06 05:13:42;;;;;;;;;2.00;1.00;;;;;18.67;63.92;99777.19;5018878;28;45706;-77
2021/08/06 05:19:29;;;;;;;;;3.00;1.25;;;;;18.70;63.78;99783.94;5017946;28;45799;-77
2021/08/06 05:21:55;;;;;;;;;1.00;1.00;;;;;18.66;64.08;99788.78;5019109;28;45579;-76
2021/08/06 05:24:20;;;;;;;;;5.00;3.50;;;;;18.71;63.53;99781.09;5023600;28;45536;-77
2021/08/06 05:26:45;;;;;;;;;1.00;1.00;;;;;18.66;63.76;99780.81;5025239;28;45581;-77
2021/08/06 05:29:11;;;;;;;;;1.00;1.00;;;;;18.70;63.46;99791.88;5023584;28;46439;-78
2021/08/06 05:34:59;;;;;;;;;1.50;1.00;;;;;18.53;63.89;99753.22;5008458;28;45830;-77
2021/08/06 05:37:24;;;;;;;;;2.00;1.25;;;;;18.65;63.52;99779.16;5017483;28;46783;-77
2021/08/06 05:39:50;;;;;;;;;0.75;0.00;;;;;18.66;63.33;99778.16;5017379;28;45600;-77
2021/08/06 05:42:15;;;;;;;;;2.25;0.75;;;;;18.35;63.64;99724.41;5017551;28;45650;-77
2021/08/06 05:44:40;;;;;;;;;3.00;1.00;;;;;18.62;63.85;99765.47;5017179;28;45801;-77
2021/08/06 05:47:06;;;;;;;;;1.75;1.75;;;;;18.46;63.80;99745.19;5017154;28;46425;-78
2021/08/06 05:49:31;;;;;;;;;2.00;2.00;;;;;18.70;63.87;99773.31;5017287;28;45550;-81
2021/08/06 05:51:56;;;;;;;;;4.00;0.75;;;;;18.72;63.57;99779.28;5017125;28;45657;-81
2021/08/06 05:54:22;;;;;;;;;1.00;1.00;;;;;18.67;63.76;99776.34;5017023;28;45682;-85
2021/08/06 05:56:47;;;;;;;;;1.00;1.00;;;;;18.72;63.97;99782.75;5016956;28;45728;-83
2021/08/06 05:59:12;;;;;;;;;0.50;0.00;;;;;18.77;63.84;99787.50;5017001;28;45702;-83
2021/08/06 06:04:59;;;;;;;;;2.00;1.00;;;;;18.75;63.96;99795.66;5017088;28;45642;-85
2021/08/06 06:07:25;;;;;;;;;2.00;1.50;;;;;18.75;64.11;99789.50;5016693;28;47318;-78
2021/08/06 06:09:50;;;;;;;;;3.00;0.75;;;;;18.80;63.70;99785.31;5016687;28;46039;-81
2021/08/06 06:12:15;;;;;;;;;1.50;1.00;;;;;18.74;63.96;99782.56;5017057;28;45568;-79
2021/08/06 06:14:41;;;;;;;;;1.00;1.00;;;;;18.83;64.09;99797.41;5017147;28;45673;-81
2021/08/06 06:17:07;;;;;;;;;0.50;0.50;;;;;18.83;64.20;99789.44;5016942;28;46882;-76
2021/08/06 06:19:32;;;;;;;;;0.50;0.50;;;;;18.81;64.04;99791.44;5016714;28;45682;-81
2021/08/06 06:21:58;;;;;;;;;1.75;1.75;;;;;18.79;64.17;99798.75;4998767;28;45653;-82
2021/08/06 06:24:23;;;;;;;;;0.75;0.50;;;;;18.82;63.86;99809.84;5017280;28;45669;-82
2021/08/06 06:26:49;;;;;;;;;1.75;1.00;;;;;18.86;63.70;99811.13;5016605;28;45643;-83
2021/08/06 06:29:14;;;;;;;;;1.50;0.50;;;;;18.77;64.12;99795.47;5016169;28;46332;-83
2021/08/06 06:35:01;;;;;;;;;1.00;0.75;;;;;18.84;64.14;99796.38;5015596;28;45755;-82
2021/08/06 06:37:27;;;;;;;;;2.00;1.00;;;;;18.83;63.88;99794.75;5016322;28;45598;-81
2021/08/06 06:39:52;;;;;;;;;1.50;1.00;;;;;18.93;64.16;99808.59;5016172;28;46329;-83
2021/08/06 06:42:18;;;;;;;;;1.00;1.00;;;;;18.93;63.83;99815.72;5016356;28;45734;-84
2021/08/06 06:44:43;;;;;;;;;1.00;1.00;;;;;18.79;63.85;99798.75;5016660;28;45568;-81
2021/08/06 06:50:30;;;;;;;;;0.00;0.00;;;;;18.96;64.15;99826.78;5015760;28;45933;-82
2021/08/06 06:52:56;;;;;;;;;1.50;0.50;;;;;18.97;63.57;99817.81;5016243;28;45658;-78
2021/08/06 06:55:22;;;;;;;;;1.00;1.00;;;;;18.85;63.88;99813.97;5016080;28;45619;-80
2021/08/06 06:57:52;;;;;;;;;0.50;0.50;;;;;19.01;63.94;99829.72;5014391;28;47657;-79
2021/08/06 07:00:21;;;;;;;;;1.50;0.00;;;;;18.98;63.53;99823.97;5015922;28;46092;-79
2021/08/06 07:02:47;;;;;;;;;0.25;0.25;;;;;18.90;64.07;99802.78;5015982;28;45584;-79
2021/08/06 07:05:13;;;;;;;;;2.00;1.00;;;;;18.89;63.55;99801.16;5015911;28;45974;-80
2021/08/06 07:07:38;;;;;;;;;0.50;0.25;;;;;19.01;63.53;99819.09;5016570;28;46430;-82
2021/08/06 07:10:07;;;;;;;;;0.00;0.00;;;;;19.09;63.46;99832.31;5015063;28;46104;-79
2021/08/06 07:12:33;;;;;;;;;2.00;1.00;;;;;19.10;63.88;99839.25;5016056;28;45511;-76
2021/08/06 07:15:03;;;;;;;;;1.00;0.75;;;;;19.12;63.27;99837.22;4997172;28;45821;-76
2021/08/06 07:20:50;;;;;;;;;1.00;0.00;;;;;19.14;63.50;99835.22;5017441;28;45775;-80
2021/08/06 07:23:15;;;;;;;;;0.75;0.75;;;;;19.13;63.72;99844.19;5018114;28;45641;-79
2021/08/06 07:25:41;;;;;;;;;0.00;0.00;;;;;19.11;63.23;99842.75;5019215;28;45579;-78
2021/08/06 07:28:06;;;;;;;;;0.25;0.25;;;;;19.16;63.50;99857.09;5023554;28;45566;-80
2021/08/06 07:30:31;;;;;;;;;1.00;0.75;;;;;19.16;63.10;99854.44;5022920;28;46288;-75
2021/08/06 07:32:57;;;;;;;;;0.00;0.00;;;;;19.17;63.25;99845.47;5023219;28;45511;-75
2021/08/06 07:35:24;;;;;;;;;0.50;0.50;;;;;19.17;63.40;99853.44;5021464;28;45646;-75
2021/08/06 07:37:49;;;;;;;;;1.00;1.00;;;;;19.21;63.12;99848.59;5020502;28;47441;-77
2021/08/06 07:40:16;;;;;;;;;1.00;0.25;;;;;19.18;63.20;99841.81;5015067;28;46946;-79
2021/08/06 07:42:42;;;;;;;;;1.00;0.00;;;;;19.25;63.24;99861.34;4997791;28;45559;-75
2021/08/06 07:45:09;;;;;;;;;2.50;0.00;;;;;19.27;63.20;99856.63;5015346;28;45620;-75
2021/08/06 07:50:55;;;;;;;;;0.50;0.00;;;;;19.27;63.40;99861.94;5014484;28;45482;-79
2021/08/06 07:53:21;;;;;;;;;0.25;0.25;;;;;19.31;62.98;99862.44;5014852;28;45748;-78
2021/08/06 07:55:46;;;;;;;;;0.75;0.25;;;;;19.34;63.01;99858.56;5014865;28;45994;-79
2021/08/06 07:58:12;;;;;;;;;0.00;0.00;;;;;19.28;63.11;99860.94;5014781;28;46431;-80
2021/08/06 08:00:37;;;;;;;;;0.00;0.00;;;;;19.31;62.97;99869.56;5014896;28;45555;-79
2021/08/06 08:06:24;;;;;;;;;0.00;0.00;;;;;19.37;63.21;99871.50;5014137;28;45563;-79
2021/08/06 08:08:51;;;;;;;;;0.75;0.00;;;;;19.32;63.61;99872.06;5014062;28;46592;-82
2021/08/06 08:11:16;;;;;;;;;0.50;0.50;;;;;19.37;63.49;99890.09;5014364;28;46060;-80
2021/08/06 08:13:41;;;;;;;;;1.00;0.50;;;;;19.34;63.22;99877.16;5014630;28;45607;-80
2021/08/06 08:16:07;;;;;;;;;0.50;0.50;;;;;19.34;63.74;99885.97;5014308;28;45619;-78
2021/08/06 08:18:33;;;;;;;;;0.50;0.50;;;;;19.20;63.57;99869.03;5014231;28;46287;-78
2021/08/06 08:20:58;;;;;;;;;0.50;0.00;;;;;19.33;63.77;99888.78;5014486;28;46172;-81
2021/08/06 08:23:24;;;;;;;;;0.50;0.00;;;;;19.33;63.26;99884.31;5014741;28;45833;-81
2021/08/06 08:25:53;;;;;;;;;0.25;0.00;;;;;19.35;63.36;99882.31;5014317;28;45722;-79
2021/08/06 08:28:19;;;;;;;;;2.25;0.75;;;;;19.34;63.62;99878.00;5013591;28;46401;-80
2021/08/06 08:30:44;;;;;;;;;0.50;0.00;;;;;19.42;63.31;99891.19;5014213;28;46429;-79
2021/08/06 08:36:31;;;;;;;;;0.00;0.00;;;;;19.47;63.41;99883.53;5002844;28;45671;-79
2021/08/06 08:38:57;;;;;;;;;1.00;0.25;;;;;19.49;63.17;99870.03;5013550;28;46777;-79
2021/08/06 08:41:23;;;;;;;;;0.50;0.00;;;;;19.52;62.98;99883.81;5014244;28;45620;-78
2021/08/06 08:43:49;;;;;;;;;0.00;0.00;;;;;19.43;62.75;99860.16;5013979;28;45773;-79
2021/08/06 08:46:17;;;;;;;;;0.75;0.00;;;;;19.61;63.26;99887.16;5012560;28;45625;-77
2021/08/06 08:48:44;;;;;;;;;0.75;0.50;;;;;19.65;63.07;99894.59;5013447;28;46685;-76
2021/08/06 08:51:12;;;;;;;;;1.00;0.00;;;;;19.69;62.52;99889.75;5013072;28;46145;-76
2021/08/06 08:53:37;;;;;;;;;0.75;0.00;;;;;19.74;62.53;99890.00;5013864;28;45786;-76
2021/08/06 08:56:03;;;;;;;;;0.00;0.00;;;;;19.79;62.20;99895.59;5013849;28;45656;-77
2021/08/06 08:58:28;;;;;;;;;1.00;1.00;;;;;19.80;62.33;99894.59;5014109;28;45765;-77
2021/08/06 09:00:54;;;;;;;;;0.00;0.00;;;;;19.85;62.26;99916.13;5013089;28;46514;-76
2021/08/06 09:06:43;;;;;;;;;0.75;0.50;;;;;19.89;61.95;99896.13;5013979;28;45660;-78
2021/08/06 09:09:13;;;;;;;;;1.00;0.00;;;;;19.91;61.86;99899.44;4996241;28;45680;-78
2021/08/06 09:11:39;;;;;;;;;1.00;0.00;;;;;19.94;61.88;99901.69;5014049;28;45912;-77
2021/08/06 09:14:15;;;;;;;;;0.50;0.50;;;;;19.90;61.55;99897.78;5014012;28;45607;-78
2021/08/06 09:16:59;;;;;;;;;0.50;0.50;;;;;20.00;61.61;99911.59;5014482;28;45564;-78
2021/08/06 09:19:26;;;;;;;;;0.00;0.00;;;;;20.02;61.59;99904.28;5014097;28;45654;-77
2021/08/06 09:22:08;;;;;;;;;0.00;0.00;;;;;20.08;61.55;99908.81;5013970;28;46246;-77
2021/08/06 09:24:33;;;;;;;;;0.75;0.25;;;;;20.15;61.26;99910.72;5013750;28;45587;-78
2021/08/06 09:26:59;;;;;;;;;0.00;0.00;;;;;20.18;61.50;99915.69;5013983;28;45741;-77
2021/08/06 09:29:25;;;;;;;;;0.50;0.00;;;;;20.19;61.30;99920.00;5013905;28;46400;-77
2021/08/06 09:31:50;;;;;;;;;1.00;0.50;;;;;20.26;61.20;99924.38;5014321;28;46995;-77
2021/08/06 09:34:23;;;;;;;;;1.00;0.25;;;;;20.25;61.46;99919.22;5021755;28;45713;-77
2021/08/06 09:37:01;;;;;;;;;0.50;0.50;;;;;20.31;61.55;99937.09;5021453;28;46486;-77
2021/08/06 09:39:33;;;;;;;;;1.00;0.00;;;;;20.22;61.08;99922.28;5021037;28;46607;-77
2021/08/06 09:41:59;;;;;;;;;1.00;0.75;;;;;20.30;61.58;99932.78;5021615;28;47239;-80
2021/08/06 09:44:26;;;;;;;;;0.50;0.50;;;;;20.22;61.55;99923.09;5013725;28;45662;-77
2021/08/06 09:46:53;;;;;;;;;1.25;0.75;;;;;20.27;61.70;99926.03;5014132;28;45568;-78
2021/08/06 09:52:47;;;;;;;;;0.25;0.25;;;;;20.28;61.66;99933.00;5013256;28;45920;-79
2021/08/06 09:55:20;;;;;;;;;1.00;0.00;;;;;20.27;61.61;99930.50;5012832;28;45532;-79
2021/08/06 09:57:46;;;;;;;;;0.00;0.00;;;;;20.24;61.86;99907.78;5014499;28;45914;-79
2021/08/06 10:00:16;;;;;;;;;1.50;1.00;;;;;20.32;61.75;99915.66;4998790;28;46925;-79
2021/08/06 10:02:43;;;;;;;;;0.00;0.00;;;;;20.38;61.48;99930.88;5016541;28;46585;-78
2021/08/06 10:05:10;;;;;;;;;0.00;0.00;;;;;20.44;61.61;99923.97;5016290;28;45684;-78
2021/08/06 10:07:51;;;;;;;;;0.00;0.00;;;;;20.48;60.98;99926.06;5016973;28;45832;-79
2021/08/06 10:10:19;;;;;;;;;0.50;0.00;;;;;20.54;61.37;99924.47;5016929;28;45787;-79
2021/08/06 10:12:45;;;;;;;;;0.00;0.00;;;;;20.56;61.32;99924.31;5016673;28;46668;-82
2021/08/06 10:15:11;;;;;;;;;0.00;0.00;;;;;20.51;61.06;99912.38;4999027;28;45524;-83
2021/08/06 10:17:37;;;;;;;;;0.00;0.00;;;;;20.57;60.82;99918.78;5017077;28;45600;-79
2021/08/06 10:20:05;;;;;;;;;0.50;0.00;;;;;20.68;60.76;99933.41;5016174;28;46220;-82
2021/08/06 10:22:31;;;;;;;;;0.75;0.00;;;;;20.72;60.69;99935.53;5016656;28;46240;-82
2021/08/06 10:24:57;;;;;;;;;0.00;0.00;;;;;20.74;60.61;99933.47;5016593;28;45579;-81
2021/08/06 10:27:27;;;;;;;;;0.75;0.00;;;;;20.76;60.14;99933.28;5017031;28;45575;-80
2021/08/06 10:30:05;;;;;;;;;0.00;0.00;;;;;20.78;60.18;99942.72;5016796;28;45587;-78
2021/08/06 10:32:31;;;;;;;;;0.00;0.00;;;;;20.83;60.36;99928.84;5016686;28;46009;-81
2021/08/06 10:35:05;;;;;;;;;0.00;0.00;;;;;20.90;60.16;99945.69;5016550;28;45571;-82
2021/08/06 10:37:43;;;;;;;;;1.00;0.00;;;;;20.94;59.95;99934.47;4998409;28;45871;-81
2021/08/06 10:40:08;;;;;;;;;1.00;1.00;;;;;20.70;59.23;99899.44;5016424;28;46615;-82
2021/08/06 10:42:34;;;;;;;;;1.25;0.50;;;;;20.99;59.89;99941.91;5016427;28;46170;-78
2021/08/06 10:45:00;;;;;;;;;0.00;0.00;;;;;21.02;59.54;99941.50;5016073;28;45547;-82
2021/08/06 10:54:09;;;;;;;;;0.25;0.00;;;;;21.18;58.94;99929.75;5015594;28;46044;-80
2021/08/06 10:56:37;;;;;;;;;1.75;1.00;;;;;21.17;58.89;99915.63;4997999;28;45701;-79
2021/08/06 10:59:11;;;;;;;;;1.00;1.00;;;;;21.22;58.57;99926.50;5016315;28;45663;-82
2021/08/06 11:04:14;;;;;;;;;1.00;1.00;;;;;21.27;58.33;99931.25;4953581;23;1615882;-74
2021/08/06 11:06:40;;;;;;;;;0.00;0.00;;;;;21.27;58.09;99936.59;4972414;28;45923;-74
2021/08/06 11:09:29;;;;;;;;;0.00;0.00;;;;;21.28;58.23;99938.22;4974464;28;45665;-78
2021/08/06 11:11:58;;;;;;;;;0.50;0.50;;;;;21.25;57.89;99936.81;4972143;28;45571;-76
2021/08/06 11:14:31;;;;;;;;;1.00;1.00;;;;;21.23;57.80;99932.66;4970462;28;45722;-75
2021/08/06 11:17:04;;;;;;;;;1.25;1.00;;;;;21.20;58.00;99939.22;4978125;28;45875;-80
2021/08/06 11:19:37;;;;;;;;;1.00;1.00;;;;;21.24;57.82;99940.47;4979376;28;45732;-78
2021/08/06 11:22:08;;;;;;;;;0.00;0.00;;;;;21.27;57.81;99931.25;4981165;28;46409;-79
2021/08/06 11:24:40;;;;;;;;;1.00;1.00;;;;;21.28;57.56;99931.06;4980484;28;46374;-76
2021/08/06 11:27:06;;;;;;;;;0.00;0.00;;;;;21.31;57.32;99951.19;4970852;28;45935;-79
2021/08/06 11:29:32;;;;;;;;;0.00;0.00;;;;;21.34;57.53;99937.47;4972208;28;45920;-77
2021/08/06 11:32:00;;;;;;;;;0.75;0.00;;;;;21.37;56.38;99945.09;4969516;28;45820;-77
2021/08/06 11:34:27;;;;;;;;;0.25;0.25;;;;;21.38;56.61;99937.91;4968650;28;47074;-76
2021/08/06 11:36:58;;;;;;;;;0.50;0.50;;;;;21.36;57.01;99935.44;4971004;28;46296;-74
2021/08/06 11:39:23;;;;;;;;;0.00;0.00;;;;;21.46;56.80;99938.56;4970220;28;46510;-74
2021/08/06 11:41:51;;;;;;;;;1.00;0.00;;;;;21.52;56.99;99937.78;4969954;28;45893;-80
2021/08/06 11:44:17;;;;;;;;;0.00;0.00;;;;;21.56;56.69;99939.03;4971581;28;46481;-75
2021/08/06 11:46:51;;;;;;;;;0.50;0.00;;;;;21.61;57.12;99933.13;4965165;28;45809;-77
2021/08/06 11:49:18;;;;;;;;;0.25;0.00;;;;;21.63;56.69;99933.75;4966602;28;46997;-76
2021/08/06 11:51:55;;;;;;;;;0.25;0.25;;;;;21.63;56.39;99928.41;4965530;28;46205;-76
2021/08/06 11:54:23;;;;;;;;;1.00;1.00;;;;;21.71;56.22;99939.72;4963278;28;47154;-76
2021/08/06 11:56:59;;;;;;;;;1.00;0.75;;;;;21.73;56.50;99935.03;4964934;28;45870;-79
2021/08/06 11:59:25;;;;;;;;;0.00;0.00;;;;;21.77;56.39;99928.28;4966378;28;46053;-75
2021/08/06 12:02:26;;;;;;;;;0.00;0.00;;;;;21.81;55.86;99926.03;4965475;28;46554;-75
2021/08/06 12:04:52;;;;;;;;;0.25;0.00;;;;;21.84;56.16;99933.66;4963453;28;47046;-74
2021/08/06 12:07:25;;;;;;;;;0.00;0.00;;;;;21.87;55.77;99930.56;4964712;28;46146;-80
2021/08/06 12:09:50;;;;;;;;;1.00;0.00;;;;;21.88;56.03;99926.06;4967046;28;45823;-75
2021/08/06 12:12:15;;;;;;;;;0.50;0.50;;;;;21.90;55.94;99943.53;4966381;28;46340;-76
2021/08/06 12:14:41;;;;;;;;;0.00;0.00;;;;;21.90;55.77;99932.88;4969004;28;46125;-74
2021/08/06 12:17:06;;;;;;;;;0.00;0.00;;;;;21.88;55.27;99937.56;4966084;28;46088;-75
2021/08/06 12:19:32;;;;;;;;;0.25;0.25;;;;;21.84;55.40;99939.00;4966658;28;45869;-76
2021/08/06 12:22:02;;;;;;;;;1.50;1.00;;;;;21.84;55.51;99946.16;4969461;28;46476;-75
2021/08/06 12:24:31;;;;;;;;;1.00;1.00;;;;;21.82;55.96;99954.34;4965489;28;46378;-76
2021/08/06 12:26:56;;;;;;;;;0.00;0.00;;;;;21.77;55.92;99952.28;4967524;28;45512;-77
2021/08/06 12:29:28;;;;;;;;;1.00;1.00;;;;;21.77;55.21;99940.78;4969626;28;46081;-76
2021/08/06 12:31:56;;;;;;;;;2.75;0.75;;;;;21.84;55.49;99941.66;4965774;28;45706;-77
2021/08/06 12:34:27;;;;;;;;;1.50;1.00;;;;;21.89;55.58;99947.22;4967383;28;47941;-76
2021/08/06 12:36:56;;;;;;;;;1.00;0.00;;;;;21.84;55.50;99919.50;4967329;28;46105;-76
2021/08/06 12:39:22;;;;;;;;;0.25;0.00;;;;;21.92;55.00;99928.13;4967657;28;47766;-79
2021/08/06 12:41:49;;;;;;;;;0.00;0.00;;;;;22.04;55.12;99949.75;4967529;28;46840;-77
2021/08/06 12:44:25;;;;;;;;;0.00;0.00;;;;;22.11;54.74;99939.94;4963749;28;45854;-76
2021/08/06 12:46:59;;;;;;;;;0.00;0.00;;;;;22.13;55.09;99932.56;4969945;28;45658;-77